Time;durP1;ratioP1;P1;durP2;ratioP2;P2;SDS_P1;SDS_P2;PMS_P1;PMS_P2;Temp;Humidity;BMP_temperature;BMP_pressure;BME280_temperature;BME280_humidity;BME280_pressure;Samples;Min_cycle;Max_cycle;Signal;HPM_P1;HPM_P2
2023/09/05 00:00:15;;;;;;;9.13;8.23;;;16.00;93.30;;;;;;5034616;28;20245;-76
2023/09/05 00:02:41;;;;;;;10.40;8.32;;;16.00;93.40;;;;;;5028603;28;20068;-78
2023/09/05 00:05:08;;;;;;;9.73;8.20;;;16.00;93.40;;;;;;5030642;28;20498;-79
2023/09/05 00:07:35;;;;;;;8.80;7.47;;;15.90;93.50;;;;;;5020216;28;20052;-81
2023/09/05 00:10:06;;;;;;;9.98;8.02;;;15.90;93.50;;;;;;5032125;28;20056;-78
2023/09/05 00:12:32;;;;;;;10.25;8.10;;;15.90;93.60;;;;;;5038777;28;20052;-83
2023/09/05 00:14:58;;;;;;;12.68;8.07;;;15.80;93.60;;;;;;5029272;28;20044;-83
2023/09/05 00:17:25;;;;;;;9.60;8.05;;;15.80;93.60;;;;;;5031935;28;20048;-81
2023/09/05 00:19:51;;;;;;;10.55;8.05;;;15.80;93.70;;;;;;5030000;28;20040;-81
2023/09/05 00:22:19;;;;;;;10.00;8.30;;;15.70;93.70;;;;;;5018917;28;20099;-80
2023/09/05 00:24:45;;;;;;;11.75;8.52;;;15.70;93.80;;;;;;5001901;28;20380;-79
2023/09/05 00:27:11;;;;;;;10.43;8.43;;;15.70;93.90;;;;;;5027833;28;20095;-81
2023/09/05 00:29:39;;;;;;;11.55;8.80;;;15.60;93.90;;;;;;5029622;28;20048;-80
2023/09/05 00:32:05;;;;;;;11.00;9.18;;;15.60;94.10;;;;;;5031675;28;20463;-81
2023/09/05 00:34:33;;;;;;;10.73;7.78;;;15.60;94.20;;;;;;5018758;28;20523;-80
2023/09/05 00:37:05;;;;;;;11.00;8.60;;;15.50;94.30;;;;;;5031276;28;20668;-78
2023/09/05 00:39:31;;;;;;;10.15;8.25;;;15.50;94.50;;;;;;5029653;28;20060;-80
2023/09/05 00:41:57;;;;;;;11.00;9.57;;;15.50;94.30;;;;;;5027206;28;20044;-80
2023/09/05 00:44:27;;;;;;;9.63;8.23;;;15.40;94.30;;;;;;5028164;28;20050;-80
2023/09/05 00:46:55;;;;;;;9.60;8.35;;;15.40;94.40;;;;;;5041115;28;20044;-80
2023/09/05 00:49:28;;;;;;;11.43;8.90;;;15.40;94.40;;;;;;5026627;28;20055;-80
2023/09/05 00:51:58;;;;;;;11.90;8.90;;;15.40;94.50;;;;;;5015480;28;20455;-80
2023/09/05 00:54:25;;;;;;;9.07;8.18;;;15.30;94.60;;;;;;5032184;28;20313;-80
2023/09/05 00:56:52;;;;;;;11.05;8.32;;;15.40;94.70;;;;;;5014417;28;20395;-81
2023/09/05 00:59:19;;;;;;;9.43;8.32;;;15.30;94.80;;;;;;5032099;28;20044;-82
2023/09/05 01:01:45;;;;;;;10.15;8.27;;;15.30;94.80;;;;;;5017014;28;20950;-79
2023/09/05 01:04:10;;;;;;;11.10;9.18;;;15.30;94.90;;;;;;5047519;28;20223;-81
2023/09/05 01:07:03;;;;;;;10.40;8.65;;;15.20;94.90;;;;;;5030793;28;20056;-81
2023/09/05 01:10:05;;;;;;;10.07;8.77;;;15.20;95.00;;;;;;5023281;28;20048;-82
2023/09/05 01:12:31;;;;;;;11.32;8.80;;;15.20;95.00;;;;;;5050002;28;20080;-84
2023/09/05 01:14:56;;;;;;;12.30;9.13;;;15.20;94.90;;;;;;5027261;28;20135;-78
2023/09/05 01:17:23;;;;;;;11.25;9.43;;;15.20;95.10;;;;;;5012068;28;20455;-82
2023/09/05 01:19:53;;;;;;;11.45;8.57;;;15.20;95.10;;;;;;5030997;28;20068;-78
2023/09/05 01:22:22;;;;;;;10.90;9.57;;;15.10;95.20;;;;;;5042610;28;20056;-78
2023/09/05 01:24:49;;;;;;;11.73;9.43;;;15.90;95.50;;;;;;5025051;28;20185;-78
2023/09/05 01:27:19;;;;;;;11.55;9.00;;;15.10;95.40;;;;;;5030721;28;20339;-79
2023/09/05 01:29:45;;;;;;;11.18;9.02;;;15.10;95.50;;;;;;5015604;28;20452;-78
2023/09/05 01:32:11;;;;;;;11.77;9.20;;;15.00;95.50;;;;;;4994233;28;20364;-82
2023/09/05 01:34:37;;;;;;;10.90;9.35;;;15.00;95.60;;;;;;5030324;28;20430;-80
2023/09/05 01:37:03;;;;;;;11.32;9.93;;;15.10;95.70;;;;;;5016430;28;20059;-83
2023/09/05 01:39:29;;;;;;;10.75;9.60;;;15.00;95.70;;;;;;5031641;28;20483;-81
2023/09/05 01:41:58;;;;;;;12.70;9.57;;;15.00;95.80;;;;;;5026483;28;20056;-78
2023/09/05 01:44:24;;;;;;;11.45;9.18;;;15.00;95.90;;;;;;5029198;28;20048;-79
2023/09/05 01:46:49;;;;;;;10.90;9.43;;;15.00;96.00;;;;;;5010999;28;20079;-80
2023/09/05 01:49:15;;;;;;;11.60;9.80;;;14.90;96.00;;;;;;4997524;28;20078;-80
2023/09/05 01:51:41;;;;;;;12.27;9.75;;;14.90;96.10;;;;;;5015448;28;20172;-78
2023/09/05 01:54:07;;;;;;;13.60;9.90;;;14.80;96.20;;;;;;5027886;28;20087;-82
2023/09/05 01:56:32;;;;;;;10.88;9.40;;;14.80;96.20;;;;;;5042977;28;20039;-82
2023/09/05 01:58:58;;;;;;;11.50;9.88;;;14.80;96.30;;;;;;5033709;28;20064;-77
2023/09/05 02:01:24;;;;;;;12.85;9.95;;;14.80;96.30;;;;;;5014271;28;20059;-83
2023/09/05 02:03:52;;;;;;;10.73;9.45;;;14.80;96.60;;;;;;5049040;28;20044;-80
2023/09/05 02:06:17;;;;;;;14.65;10.93;;;14.80;96.50;;;;;;4978814;28;20695;-80
2023/09/05 02:08:43;;;;;;;11.30;9.65;;;14.80;96.50;;;;;;5031957;28;20062;-78
2023/09/05 02:11:12;;;;;;;13.35;10.07;;;14.70;96.50;;;;;;5049304;28;20131;-82
2023/09/05 02:13:38;;;;;;;12.23;10.60;;;14.70;96.50;;;;;;5035397;28;20044;-82
2023/09/05 02:16:03;;;;;;;13.43;11.02;;;14.80;96.60;;;;;;4985963;28;20563;-81
2023/09/05 02:18:29;;;;;;;12.43;10.30;;;14.70;96.70;;;;;;5044259;28;20041;-79
2023/09/05 02:21:02;;;;;;;11.55;9.98;;;14.70;96.70;;;;;;5036741;28;20409;-82
2023/09/05 02:23:28;;;;;;;12.02;10.18;;;14.70;96.80;;;;;;5010418;28;20071;-81
2023/09/05 02:26:02;;;;;;;13.02;10.95;;;14.70;96.80;;;;;;5020720;28;20590;-77
2023/09/05 02:28:28;;;;;;;13.45;10.73;;;14.70;96.90;;;;;;5013912;28;20040;-81
2023/09/05 02:30:55;;;;;;;14.45;10.85;;;14.70;96.90;;;;;;5051008;28;20172;-79
2023/09/05 02:33:21;;;;;;;13.20;10.60;;;14.70;96.90;;;;;;5047475;28;20040;-78
2023/09/05 02:35:47;;;;;;;12.75;11.20;;;14.60;97.00;;;;;;5034515;28;20125;-78
2023/09/05 02:38:13;;;;;;;14.18;10.55;;;14.50;97.00;;;;;;5010181;28;20048;-78
2023/09/05 02:40:46;;;;;;;13.15;11.18;;;14.60;97.10;;;;;;5019796;28;20079;-78
2023/09/05 02:43:13;;;;;;;13.10;11.23;;;14.60;97.20;;;;;;5028646;28;20107;-79
2023/09/05 02:45:39;;;;;;;16.38;11.02;;;14.60;97.20;;;;;;4995931;28;20045;-83
2023/09/05 02:48:06;;;;;;;14.32;11.23;;;14.60;97.30;;;;;;5030062;28;20376;-81
2023/09/05 02:50:32;;;;;;;14.07;11.00;;;14.50;97.30;;;;;;5016335;28;20537;-78
2023/09/05 02:52:58;;;;;;;14.40;11.10;;;14.50;97.30;;;;;;4995774;28;20048;-81
2023/09/05 02:55:24;;;;;;;13.00;10.98;;;14.50;97.40;;;;;;5013397;28;20144;-81
2023/09/05 02:57:50;;;;;;;14.07;11.48;;;14.50;97.50;;;;;;5015592;28;20043;-81
2023/09/05 03:00:19;;;;;;;13.15;11.10;;;14.50;97.60;;;;;;5029701;28;20051;-81
2023/09/05 03:02:46;;;;;;;12.50;11.20;;;14.50;97.60;;;;;;5037211;28;20093;-80
2023/09/05 03:05:13;;;;;;;12.85;11.18;;;14.50;97.60;;;;;;5026075;28;20205;-82
2023/09/05 03:07:39;;;;;;;12.57;10.70;;;14.50;97.60;;;;;;5018396;28;20047;-81
2023/09/05 03:10:06;;;;;;;13.30;11.32;;;14.50;97.70;;;;;;5033084;28;20043;-82
2023/09/05 03:12:31;;;;;;;12.63;10.98;;;14.50;97.70;;;;;;5019267;28;20070;-84
2023/09/05 03:14:57;;;;;;;14.05;11.38;;;14.50;98.00;;;;;;5045821;28;20166;-83
2023/09/05 03:17:23;;;;;;;12.88;10.95;;;14.40;97.80;;;;;;5030903;28;21147;-81
2023/09/05 03:19:49;;;;;;;13.93;11.10;;;14.50;97.90;;;;;;5008936;28;20057;-79
2023/09/05 03:22:15;;;;;;;14.02;11.35;;;14.40;97.90;;;;;;5051751;28;20048;-80
2023/09/05 03:24:40;;;;;;;12.95;11.48;;;14.40;97.90;;;;;;5029129;28;20044;-80
2023/09/05 03:27:06;;;;;;;14.80;11.75;;;14.40;98.00;;;;;;5032328;28;20048;-78
2023/09/05 03:29:32;;;;;;;15.43;11.48;;;14.40;98.00;;;;;;5032746;28;20058;-78
2023/09/05 03:31:58;;;;;;;14.65;11.70;;;14.40;98.00;;;;;;5000593;28;20059;-81
2023/09/05 03:34:24;;;;;;;14.95;11.63;;;14.40;98.10;;;;;;5033407;28;20056;-78
2023/09/05 03:36:49;;;;;;;13.32;11.90;;;14.40;98.20;;;;;;5031885;28;20064;-79
2023/09/05 03:39:16;;;;;;;16.58;12.40;;;14.40;98.20;;;;;;5035027;28;20471;-81
2023/09/05 03:41:42;;;;;;;16.50;12.05;;;14.40;98.30;;;;;;5031409;28;20393;-79
2023/09/05 03:44:08;;;;;;;12.65;11.05;;;14.30;98.30;;;;;;5031478;28;21397;-78
2023/09/05 03:46:34;;;;;;;12.30;10.75;;;14.30;98.40;;;;;;5014787;28;20053;-79
2023/09/05 03:49:00;;;;;;;16.95;12.27;;;14.30;98.40;;;;;;5029215;28;20044;-80
2023/09/05 03:51:28;;;;;;;13.77;12.30;;;14.30;98.50;;;;;;4993974;28;20044;-80
2023/09/05 03:53:54;;;;;;;14.13;11.85;;;14.20;98.50;;;;;;5013811;28;20867;-80
2023/09/05 03:56:21;;;;;;;13.75;12.30;;;14.20;98.60;;;;;;5011240;28;20403;-81
2023/09/05 03:58:47;;;;;;;13.85;12.25;;;14.20;98.60;;;;;;5015683;28;20053;-81
2023/09/05 04:01:14;;;;;;;13.38;11.73;;;14.20;98.70;;;;;;5014121;28;20059;-80
2023/09/05 04:03:41;;;;;;;13.80;12.27;;;14.20;98.80;;;;;;5013312;28;20042;-80
2023/09/05 04:06:06;;;;;;;14.35;11.88;;;14.10;98.80;;;;;;5033020;28;20391;-82
2023/09/05 04:08:32;;;;;;;14.20;11.77;;;14.10;98.90;;;;;;5029218;28;20058;-85
2023/09/05 04:10:59;;;;;;;16.52;12.43;;;14.10;98.90;;;;;;5030986;28;20045;-83
2023/09/05 04:13:26;;;;;;;13.32;11.20;;;14.00;98.90;;;;;;5029235;28;20797;-79
2023/09/05 04:15:52;;;;;;;14.52;11.77;;;14.00;99.00;;;;;;5028535;28;20065;-85
2023/09/05 04:18:18;;;;;;;15.95;12.27;;;14.10;99.00;;;;;;5034408;28;20137;-84
2023/09/05 04:20:45;;;;;;;14.98;12.05;;;14.00;99.00;;;;;;5015097;28;20105;-83
2023/09/05 04:23:11;;;;;;;15.23;11.88;;;14.00;99.00;;;;;;5033920;28;20052;-85
2023/09/05 04:25:40;;;;;;;15.45;12.18;;;14.00;99.10;;;;;;5033431;28;20070;-85
2023/09/05 04:28:07;;;;;;;13.23;11.68;;;13.40;99.00;;;;;;5033940;28;20463;-84
2023/09/05 04:30:35;;;;;;;14.20;11.88;;;14.00;99.20;;;;;;5028894;28;20105;-83
2023/09/05 04:33:03;;;;;;;14.00;11.38;;;14.00;99.20;;;;;;5035006;28;20068;-80
2023/09/05 04:35:29;;;;;;;13.65;12.07;;;13.90;99.30;;;;;;5008510;28;20052;-78
2023/09/05 04:37:56;;;;;;;13.55;11.30;;;13.90;99.30;;;;;;5029656;28;20076;-77
2023/09/05 04:40:22;;;;;;;13.30;11.60;;;13.90;99.40;;;;;;5032043;28;20192;-78
2023/09/05 04:42:47;;;;;;;15.43;11.50;;;13.90;99.40;;;;;;5025561;28;20476;-77
2023/09/05 04:45:13;;;;;;;14.77;11.48;;;13.90;99.40;;;;;;5025356;28;20073;-75
2023/09/05 04:47:39;;;;;;;17.23;12.63;;;13.90;99.50;;;;;;5028381;28;20090;-76
2023/09/05 04:50:08;;;;;;;13.68;12.27;;;13.80;99.50;;;;;;5011283;28;20598;-77
2023/09/05 04:52:35;;;;;;;15.02;12.43;;;13.80;99.50;;;;;;5028252;28;20048;-79
2023/09/05 04:55:01;;;;;;;14.40;12.63;;;13.80;99.50;;;;;;5046609;28;20047;-77
2023/09/05 04:57:27;;;;;;;16.52;12.52;;;13.90;99.60;;;;;;5025494;28;20119;-78
2023/09/05 04:59:57;;;;;;;15.43;12.73;;;13.90;99.60;;;;;;5028033;28;20378;-82
2023/09/05 05:02:24;;;;;;;15.23;12.85;;;13.90;99.60;;;;;;5011610;28;20101;-80
2023/09/05 05:04:50;;;;;;;13.55;11.48;;;13.90;99.60;;;;;;5025240;28;20118;-77
2023/09/05 05:07:16;;;;;;;15.20;12.15;;;13.90;99.70;;;;;;5023368;28;20068;-80
2023/09/05 05:09:43;;;;;;;16.15;13.20;;;13.90;99.70;;;;;;5026873;28;20543;-78
2023/09/05 05:12:09;;;;;;;14.70;12.65;;;13.90;99.80;;;;;;5025742;28;20044;-80
2023/09/05 05:14:35;;;;;;;18.88;13.73;;;13.90;99.80;;;;;;5012051;28;20079;-78
2023/09/05 05:17:02;;;;;;;15.95;13.73;;;13.90;99.80;;;;;;5044553;28;20048;-77
2023/09/05 05:19:28;;;;;;;14.40;12.57;;;14.00;99.90;;;;;;5025998;28;20063;-80
2023/09/05 05:21:55;;;;;;;14.95;12.35;;;14.00;99.90;;;;;;5004062;28;20048;-78
2023/09/05 05:24:21;;;;;;;14.93;12.35;;;14.00;99.90;;;;;;5006115;28;20036;-78
2023/09/05 05:26:46;;;;;;;14.40;11.73;;;14.00;99.90;;;;;;5026661;28;20045;-78
2023/09/05 05:29:12;;;;;;;13.73;11.88;;;14.00;99.90;;;;;;5007298;28;20139;-79
2023/09/05 05:31:41;;;;;;;13.38;11.55;;;14.00;99.90;;;;;;5005059;28;20142;-80
2023/09/05 05:34:07;;;;;;;14.65;12.38;;;14.00;99.90;;;;;;5026647;28;20044;-78
2023/09/05 05:36:33;;;;;;;16.65;11.65;;;14.10;99.90;;;;;;5029907;28;20499;-79
2023/09/05 05:38:59;;;;;;;15.10;11.70;;;14.10;99.90;;;;;;5012282;28;20052;-79
2023/09/05 05:41:29;;;;;;;15.80;12.43;;;13.80;99.90;;;;;;5027573;28;20062;-77
2023/09/05 05:43:56;;;;;;;15.05;12.48;;;14.10;99.90;;;;;;5005532;28;20060;-79
2023/09/05 05:46:21;;;;;;;15.70;11.98;;;14.10;99.90;;;;;;5017421;28;20041;-78
2023/09/05 05:48:47;;;;;;;14.05;12.10;;;14.20;99.90;;;;;;5033310;28;20681;-77
2023/09/05 05:51:14;;;;;;;14.60;12.65;;;14.20;99.90;;;;;;5034810;28;21962;-79
2023/09/05 05:53:42;;;;;;;14.98;11.95;;;14.30;99.90;;;;;;5030009;28;20109;-79
2023/09/05 05:56:11;;;;;;;15.25;12.40;;;14.30;99.90;;;;;;5018325;28;20072;-79
2023/09/05 05:58:37;;;;;;;14.88;12.05;;;14.30;99.90;;;;;;5037649;28;20060;-78
2023/09/05 06:01:03;;;;;;;15.48;12.73;;;14.40;99.90;;;;;;5037714;28;20076;-80
2023/09/05 06:03:29;;;;;;;15.13;11.73;;;14.40;99.90;;;;;;5031436;28;20049;-81
2023/09/05 06:05:55;;;;;;;12.68;10.95;;;14.40;99.90;;;;;;5015427;28;20123;-79
2023/09/05 06:08:21;;;;;;;13.57;11.20;;;14.50;99.90;;;;;;5011863;28;20512;-79
2023/09/05 06:10:47;;;;;;;14.15;10.05;;;14.50;99.90;;;;;;5030797;28;20065;-79
2023/09/05 06:13:13;;;;;;;13.55;10.75;;;14.50;99.90;;;;;;5033053;28;20091;-79
2023/09/05 06:15:40;;;;;;;11.18;9.57;;;14.50;99.90;;;;;;5028108;28;20140;-81
2023/09/05 06:18:07;;;;;;;12.15;10.40;;;14.60;99.90;;;;;;5031233;28;20119;-79
2023/09/05 06:20:34;;;;;;;11.63;10.32;;;14.60;99.90;;;;;;5027830;28;20744;-80
2023/09/05 06:23:04;;;;;;;13.32;10.45;;;14.70;99.90;;;;;;5030529;28;20044;-82
2023/09/05 06:25:30;;;;;;;12.73;9.90;;;14.80;99.90;;;;;;5011491;28;20068;-78
2023/09/05 06:27:56;;;;;;;12.63;10.50;;;14.80;99.90;;;;;;5031409;28;20049;-80
2023/09/05 06:30:23;;;;;;;13.00;11.57;;;14.60;99.90;;;;;;5029210;28;20052;-80
2023/09/05 06:32:49;;;;;;;13.25;10.55;;;14.90;99.90;;;;;;5013818;28;21041;-78
2023/09/05 06:35:15;;;;;;;12.35;10.40;;;15.00;99.90;;;;;;5027077;28;20515;-79
2023/09/05 06:37:41;;;;;;;13.45;11.05;;;15.10;99.90;;;;;;5027058;28;20063;-82
2023/09/05 06:40:12;;;;;;;13.15;10.63;;;15.20;99.90;;;;;;4992167;28;20072;-80
2023/09/05 06:42:42;;;;;;;13.75;10.73;;;15.20;99.90;;;;;;4996691;28;20052;-79
2023/09/05 06:45:09;;;;;;;14.57;11.45;;;15.30;99.90;;;;;;5033128;28;20040;-80
2023/09/05 06:47:35;;;;;;;12.38;10.95;;;15.40;99.90;;;;;;5041657;28;20546;-77
2023/09/05 06:50:03;;;;;;;14.77;12.43;;;15.50;99.90;;;;;;5025178;28;20118;-80
2023/09/05 06:52:28;;;;;;;15.05;11.23;;;15.70;99.90;;;;;;5049831;28;20039;-79
2023/09/05 06:54:54;;;;;;;14.73;10.73;;;15.80;99.90;;;;;;5007399;28;20033;-79
2023/09/05 06:57:20;;;;;;;13.27;10.20;;;15.90;99.90;;;;;;5031843;28;20642;-78
2023/09/05 06:59:45;;;;;;;12.50;10.90;;;16.00;99.90;;;;;;5018605;28;20036;-80
2023/09/05 07:02:11;;;;;;;12.98;10.65;;;16.10;99.90;;;;;;5029631;28;20084;-78
2023/09/05 07:04:37;;;;;;;12.70;10.93;;;16.30;99.90;;;;;;5027959;28;20051;-80
2023/09/05 07:07:04;;;;;;;14.15;11.38;;;15.90;99.90;;;;;;5046962;28;20040;-81
2023/09/05 07:09:30;;;;;;;12.82;10.73;;;16.60;99.90;;;;;;5025396;28;20047;-81
2023/09/05 07:11:56;;;;;;;14.25;10.85;;;16.70;99.90;;;;;;5042860;28;20052;-81
2023/09/05 07:14:23;;;;;;;11.52;9.75;;;17.00;99.90;;;;;;5040245;28;20051;-80
2023/09/05 07:16:49;;;;;;;13.32;10.90;;;17.20;99.90;;;;;;5033077;28;20045;-80
2023/09/05 07:19:17;;;;;;;12.95;10.57;;;17.30;99.90;;;;;;5039806;28;20049;-81
2023/09/05 07:21:43;;;;;;;14.20;9.95;;;17.50;99.90;;;;;;5039299;28;20449;-81
2023/09/05 07:24:11;;;;;;;11.35;9.60;;;17.70;99.90;;;;;;5036082;28;20053;-78
2023/09/05 07:26:38;;;;;;;10.35;8.73;;;17.90;99.90;;;;;;5040002;28;20552;-81
2023/09/05 07:29:10;;;;;;;10.95;8.75;;;18.10;99.70;;;;;;5040393;28;20052;-80
2023/09/05 07:31:37;;;;;;;11.30;9.20;;;18.30;99.30;;;;;;5016445;28;20049;-80
2023/09/05 07:34:03;;;;;;;10.18;8.00;;;18.50;99.00;;;;;;5046390;28;20385;-82
2023/09/05 07:36:31;;;;;;;11.90;8.68;;;18.70;98.60;;;;;;5029699;28;20049;-80
2023/09/05 07:38:57;;;;;;;11.32;8.10;;;19.00;98.20;;;;;;5029826;28;20123;-81
2023/09/05 07:41:24;;;;;;;7.93;6.53;;;19.20;97.80;;;;;;5012299;28;20052;-79
2023/09/05 07:43:50;;;;;;;8.95;6.95;;;19.40;97.20;;;;;;5051506;28;20100;-80
2023/09/05 07:46:16;;;;;;;9.27;7.13;;;19.60;96.50;;;;;;5045434;28;20052;-81
2023/09/05 07:48:42;;;;;;;8.20;7.05;;;19.80;95.80;;;;;;5025909;28;20044;-82
2023/09/05 07:51:07;;;;;;;9.27;6.75;;;20.00;95.10;;;;;;5044690;28;22605;-80
2023/09/05 07:53:37;;;;;;;9.13;6.18;;;20.30;94.70;;;;;;5030911;28;20044;-81
2023/09/05 07:56:03;;;;;;;8.45;6.82;;;20.60;94.10;;;;;;5022243;28;20052;-79
2023/09/05 07:58:30;;;;;;;8.82;6.85;;;20.90;93.30;;;;;;5043743;28;20053;-81
2023/09/05 08:00:56;;;;;;;8.60;7.28;;;21.20;92.50;;;;;;5050217;28;20044;-77
2023/09/05 08:03:25;;;;;;;9.38;6.75;;;21.40;91.70;;;;;;5043451;28;20036;-81
2023/09/05 08:05:53;;;;;;;8.93;6.95;;;21.70;91.00;;;;;;5048169;28;20059;-79
2023/09/05 08:08:20;;;;;;;7.93;6.18;;;22.00;90.20;;;;;;5042550;28;20040;-78
2023/09/05 08:10:46;;;;;;;7.72;6.20;;;22.20;88.40;;;;;;5012607;28;20059;-78
2023/09/05 08:13:14;;;;;;;7.88;6.32;;;22.50;86.80;;;;;;5047248;28;20130;-80
2023/09/05 08:15:41;;;;;;;5.82;5.05;;;22.70;84.20;;;;;;5029983;28;20049;-80
2023/09/05 08:18:07;;;;;;;8.23;5.97;;;23.00;81.70;;;;;;5023578;28;20063;-80
2023/09/05 08:20:33;;;;;;;6.15;5.55;;;23.20;79.80;;;;;;5063561;28;20098;-77
2023/09/05 08:23:01;;;;;;;5.93;4.97;;;23.40;76.50;;;;;;5043214;28;20423;-80
2023/09/05 08:25:27;;;;;;;5.95;5.03;;;23.60;73.60;;;;;;5013320;28;20282;-81
2023/09/05 08:27:56;;;;;;;7.07;4.63;;;23.90;72.10;;;;;;5045922;28;20111;-78
2023/09/05 08:30:24;;;;;;;7.10;4.70;;;24.20;71.00;;;;;;5028988;28;20048;-80
2023/09/05 08:32:51;;;;;;;6.88;4.93;;;24.50;69.00;;;;;;5059506;28;20142;-80
2023/09/05 08:35:17;;;;;;;5.97;4.57;;;24.70;64.80;;;;;;5050118;28;20037;-79
2023/09/05 08:37:43;;;;;;;5.57;4.40;;;25.00;62.40;;;;;;5041879;28;20470;-78
2023/09/05 08:40:09;;;;;;;5.78;4.13;;;25.20;59.30;;;;;;5034340;28;20043;-81
2023/09/05 08:42:37;;;;;;;4.72;3.90;;;25.40;56.40;;;;;;5043276;28;20044;-81
2023/09/05 08:45:04;;;;;;;6.57;3.95;;;25.70;53.40;;;;;;5039007;28;20036;-78
2023/09/05 08:47:31;;;;;;;4.50;3.53;;;25.90;48.70;;;;;;5033286;28;20126;-80
2023/09/05 08:50:00;;;;;;;4.60;3.50;;;26.00;46.20;;;;;;5044490;28;20053;-79
2023/09/05 08:52:31;;;;;;;5.15;3.30;;;26.20;43.20;;;;;;5053759;28;20051;-80
2023/09/05 08:54:58;;;;;;;3.85;3.28;;;26.40;38.90;;;;;;5057998;28;20045;-77
2023/09/05 08:57:25;;;;;;;5.25;3.38;;;26.70;35.20;;;;;;5044922;28;20113;-79
2023/09/05 08:59:52;;;;;;;4.50;3.08;;;26.90;29.10;;;;;;5033048;28;20128;-81
2023/09/05 09:02:18;;;;;;;4.50;3.55;;;27.20;23.70;;;;;;5028318;28;20048;-80
2023/09/05 09:04:51;;;;;;;5.32;3.17;;;27.40;15.10;;;;;;5016044;28;20622;-78
2023/09/05 09:07:17;;;;;;;5.25;3.30;;;27.60;9.80;;;;;;5033343;28;20246;-76
2023/09/05 09:09:43;;;;;;;4.47;3.15;;;27.80;7.80;;;;;;5013772;28;20055;-76
2023/09/05 09:12:09;;;;;;;4.07;3.22;;;27.90;6.60;;;;;;5044048;28;20102;-77
2023/09/05 09:14:35;;;;;;;4.63;2.65;;;28.00;1.00;;;;;;5026703;28;20127;-77
2023/09/05 09:17:04;;;;;;;4.47;3.00;;;28.10;1.00;;;;;;5006792;28;20040;-78
2023/09/05 09:19:31;;;;;;;3.63;2.75;;;28.20;1.00;;;;;;5040169;28;20048;-76
2023/09/05 09:22:02;;;;;;;3.55;2.65;;;28.50;1.00;;;;;;5020207;28;20048;-77
2023/09/05 09:24:36;;;;;;;4.10;3.10;;;28.90;1.00;;;;;;5029882;28;20732;-77
2023/09/05 09:27:04;;;;;;;4.00;2.88;;;29.20;1.00;;;;;;5028527;28;20064;-77
2023/09/05 09:29:30;;;;;;;4.20;2.97;;;29.50;1.00;;;;;;5018502;28;20059;-76
2023/09/05 09:32:05;;;;;;;3.60;2.33;;;29.70;1.00;;;;;;4994535;28;20086;-77
2023/09/05 09:34:32;;;;;;;4.68;2.38;;;30.00;1.00;;;;;;5026679;28;20059;-77
2023/09/05 09:36:58;;;;;;;3.33;2.33;;;30.20;1.00;;;;;;5015210;28;20072;-76
2023/09/05 09:39:25;;;;;;;3.72;2.08;;;30.40;1.00;;;;;;5051385;28;20040;-76
2023/09/05 09:41:51;;;;;;;3.85;1.90;;;30.60;1.00;;;;;;5033202;28;20170;-77
2023/09/05 09:44:31;;;;;;;3.63;2.15;;;30.70;99.90;;;;;;5033989;28;20051;-77
2023/09/05 09:46:59;;;;;;;4.30;1.90;;;30.80;99.90;;;;;;5027840;28;21899;-76
2023/09/05 09:49:26;;;;;;;3.08;2.15;;;31.00;99.90;;;;;;5015897;28;20140;-76
2023/09/05 09:52:02;;;;;;;2.95;1.80;;;31.10;1.00;;;;;;5031098;28;20082;-76
2023/09/05 09:54:33;;;;;;;4.95;2.13;;;31.10;99.90;;;;;;5022642;28;20735;-76
2023/09/05 09:57:01;;;;;;;3.40;1.85;;;31.20;99.90;;;;;;5023150;28;20041;-77
2023/09/05 09:59:35;;;;;;;3.05;1.77;;;31.40;50.70;;;;;;5027993;28;20498;-77
2023/09/05 10:02:13;;;;;;;2.95;1.98;;;31.40;99.90;;;;;;5006230;28;20134;-76
2023/09/05 10:04:41;;;;;;;2.20;1.70;;;31.60;1.00;;;;;;5030586;28;20067;-78
2023/09/05 10:07:10;;;;;;;2.60;1.80;;;31.60;19.70;;;;;;5029222;28;20391;-76
2023/09/05 10:09:39;;;;;;;4.82;1.83;;;31.70;99.90;;;;;;5047879;28;20051;-77
2023/09/05 10:12:05;;;;;;;3.40;1.70;;;31.90;99.90;;;;;;5029387;28;20073;-76
2023/09/05 10:14:33;;;;;;;3.13;1.80;;;32.10;99.90;;;;;;5018863;28;20040;-77
2023/09/05 10:17:00;;;;;;;4.95;1.92;;;32.20;99.90;;;;;;5024814;28;20085;-76
2023/09/05 10:19:27;;;;;;;3.55;1.95;;;32.20;5.60;;;;;;5024979;28;20178;-76
2023/09/05 10:21:55;;;;;;;2.85;1.77;;;32.10;1.00;;;;;;5048646;28;20487;-76
2023/09/05 10:24:24;;;;;;;3.22;1.80;;;32.20;1.00;;;;;;5033976;28;20068;-77
2023/09/05 10:26:50;;;;;;;3.30;2.00;;;32.20;99.90;;;;;;5006171;28;20479;-76
2023/09/05 10:29:56;;;;;;;4.05;1.98;;;32.20;1.00;;;;;;4991362;28;20056;-77
2023/09/05 10:32:22;;;;;;;;;;;32.30;20.00;;;;;;4944730;28;20401;-77
2023/09/05 10:34:48;;;;;;;3.83;1.80;;;32.20;99.90;;;;;;4984841;28;20406;-77
2023/09/05 10:37:17;;;;;;;4.30;1.83;;;32.20;99.90;;;;;;4994746;28;20069;-76
2023/09/05 10:39:47;;;;;;;3.10;1.80;;;32.30;99.90;;;;;;5030887;28;20085;-77
2023/09/05 10:42:14;;;;;;;4.10;2.20;;;32.30;1.00;;;;;;5037658;28;20158;-75
2023/09/05 10:44:50;;;;;;;2.42;1.60;;;32.40;1.00;;;;;;5013443;28;20056;-75
2023/09/05 10:47:26;;;;;;;3.22;1.65;;;32.50;99.90;;;;;;5039170;28;20490;-77
2023/09/05 10:50:05;;;;;;;2.50;1.40;;;32.50;23.40;;;;;;5029687;28;20045;-81
2023/09/05 10:52:31;;;;;;;3.35;1.60;;;32.40;68.70;;;;;;5028828;28;20033;-77
2023/09/05 10:54:59;;;;;;;4.05;1.60;;;32.40;99.90;;;;;;5044745;28;20052;-77
2023/09/05 10:57:40;;;;;;;3.30;1.85;;;32.60;99.90;;;;;;5013244;28;20525;-78
2023/09/05 11:00:37;;;;;;;2.35;1.50;;;32.90;98.60;;;;;;5041815;28;20054;-77
2023/09/05 11:03:13;;;;;;;3.63;1.55;;;33.00;99.90;;;;;;5029618;28;20056;-77
2023/09/05 11:05:40;;;;;;;2.90;1.20;;;33.20;99.90;;;;;;5041005;28;20474;-77
2023/09/05 11:08:20;;;;;;;2.65;1.55;;;33.40;99.90;;;;;;5036124;28;20101;-77
2023/09/05 11:10:46;;;;;;;3.88;1.77;;;33.40;1.00;;;;;;5034121;28;20446;-77
2023/09/05 11:13:14;;;;;;;2.88;1.60;;;33.40;1.00;;;;;;5028500;28;20056;-77
2023/09/05 11:15:43;;;;;;;4.38;1.60;;;33.30;1.00;;;;;;5041489;28;20060;-77
2023/09/05 11:18:14;;;;;;;4.85;2.08;;;33.50;1.00;;;;;;5030164;28;20076;-77
2023/09/05 11:20:49;;;;;;;2.13;1.33;;;33.60;1.00;;;;;;5037150;28;21323;-77
2023/09/05 11:23:17;;;;;;;2.35;1.35;;;33.70;1.00;;;;;;5038653;28;20155;-77
2023/09/05 11:25:47;;;;;;;3.08;1.40;;;33.80;1.00;;;;;;5013077;28;20051;-76
2023/09/05 11:28:14;;;;;;;2.38;1.40;;;33.90;99.90;;;;;;5017983;28;20044;-77
2023/09/05 11:30:44;;;;;;;3.67;1.40;;;33.90;99.90;;;;;;5044244;28;20100;-77
2023/09/05 11:33:13;;;;;;;2.55;1.63;;;34.00;99.90;;;;;;5041609;28;20044;-77
2023/09/05 11:35:41;;;;;;;2.13;1.40;;;34.00;99.90;;;;;;5051656;28;20040;-77
2023/09/05 11:38:07;;;;;;;3.47;1.48;;;34.10;99.90;;;;;;5028390;28;20041;-77
2023/09/05 11:40:34;;;;;;;2.95;1.65;;;34.10;99.90;;;;;;5047325;28;20051;-77
2023/09/05 11:43:04;;;;;;;2.30;1.10;;;34.10;99.90;;;;;;5030347;28;20059;-77
2023/09/05 11:45:32;;;;;;;1.98;1.23;;;34.10;99.90;;;;;;5048016;28;20039;-77
2023/09/05 11:47:59;;;;;;;2.83;1.23;;;34.20;57.30;;;;;;5044121;28;20048;-77
2023/09/05 11:50:26;;;;;;;2.30;1.10;;;34.20;22.00;;;;;;5039461;28;20066;-77
2023/09/05 11:52:53;;;;;;;3.33;1.40;;;34.20;1.00;;;;;;5025304;28;20113;-77
2023/09/05 11:55:23;;;;;;;2.72;1.40;;;34.10;1.00;;;;;;5026878;28;20056;-77
2023/09/05 11:57:54;;;;;;;2.53;1.40;;;34.20;1.00;;;;;;5022679;28;20189;-77
2023/09/05 12:00:22;;;;;;;1.80;1.10;;;34.30;1.00;;;;;;5037940;28;20161;-77
2023/09/05 12:02:48;;;;;;;3.50;1.20;;;34.50;1.00;;;;;;5023035;28;20110;-77
2023/09/05 12:05:17;;;;;;;1.95;1.35;;;34.60;1.00;;;;;;5017482;28;20040;-77
2023/09/05 12:07:51;;;;;;;4.55;1.20;;;34.80;1.00;;;;;;5037942;28;20509;-77
2023/09/05 12:10:18;;;;;;;2.28;1.10;;;34.90;1.00;;;;;;5040784;28;20045;-77
2023/09/05 12:12:53;;;;;;;2.50;1.10;;;35.00;1.00;;;;;;5054780;28;20090;-77
2023/09/05 12:15:34;;;;;;;3.30;1.40;;;35.00;1.00;;;;;;5056847;28;20052;-77
2023/09/05 12:18:03;;;;;;;2.95;1.10;;;35.10;1.00;;;;;;5037634;28;20044;-78
2023/09/05 12:20:33;;;;;;;2.47;1.33;;;35.20;1.00;;;;;;5024525;28;20075;-77
2023/09/05 12:22:59;;;;;;;2.92;1.25;;;35.30;1.00;;;;;;5023463;28;20068;-77
2023/09/05 12:25:28;;;;;;;2.15;1.40;;;35.30;1.00;;;;;;5036564;28;20147;-78
2023/09/05 12:27:55;;;;;;;2.10;1.27;;;35.40;1.00;;;;;;5040059;28;20033;-77
2023/09/05 12:30:26;;;;;;;2.55;1.30;;;35.40;1.00;;;;;;5020299;28;20138;-78
2023/09/05 12:33:00;;;;;;;3.05;1.20;;;35.40;1.00;;;;;;5036942;28;20048;-77
2023/09/05 12:35:28;;;;;;;1.90;1.10;;;35.60;1.00;;;;;;5031260;28;20051;-78
2023/09/05 12:38:01;;;;;;;3.42;1.17;;;35.70;1.00;;;;;;5022688;28;20047;-78
2023/09/05 12:40:28;;;;;;;2.05;1.30;;;35.90;1.00;;;;;;5037767;28;20054;-75